Slayton, MN (56172)

9:15 AM CST on February 10, 2016 (GMT -0600)
Slayton | | Change Station
CLOSE
Current Station
Airport
Location: Slayton,
Elevation: 1624 ft
Nearby Weather Stations

Elev 1624 ft 43.99 °N, 95.78 °W | Updated 19 minutes ago

Light Snow
Light Snow
9 °F
Feels Like -4 °F
N
9
Wind Variable Wind from East

Today
High -- | Low -- °F
--% Chance of Precip.
Yesterday
High -- | Low -- °F
Precip. -- in
Pressure 30.02 in
Visibility 1.0 miles
Clouds Overcast 800 ft
Windchill -4 °F
Dew Point 7 °F
Humidity 92%
Rainfall 0.00 in
Snow Depth Not available.
7:29 AM 5:45 PM
Waxing Crescent, 6% visible
METAR KDVP 101456Z AUTO 10008KT 1SM -SN OVC008 M13/M14 A3002 RMK AO2 T11291139
Pressure 30.02 in
Visibility 1.0 miles
Clouds Overcast 800 ft
Windchill -4 °F
Dew Point 7 °F
Humidity 92%
Rainfall 0.00 in
Snow Depth Not available.
7:29 AM 5:45 PM
Waxing Crescent, 6% visible
METAR KDVP 101456Z AUTO 10008KT 1SM -SN OVC008 M13/M14 A3002 RMK AO2 T11291139

10-Day Weather Forecast

Almanac

Astronomy

Feb. 10, 2016 Rise Set
Actual Time
Civil Twilight
Nautical Twilight
Astronomical Twilight
Moon
Length of Visible Light
Length of Day
Tomorrow will be .
, % of the Moon is Illuminated

Today's Extremes

State Highs State Lows

Community

WunderPhotos

Upload Photos

1,891,857 photos uploaded!

WunderBlog® & News

Nearby

Air Quality

  Air Quality AQ Index Pollutant
Not available.

Snow Depth

Station Depth Elevation

Earthquake Activity

City Distance Mag. Time & Date
Minimum magnitude displayed is 2.5.

Coastal Water Temperatures

Place Temperature

Stations

Nearby Weather Stations

Station Location Temp. Windchill Dew Point Humidity Wind Precip. Elev Updated Type
                   

Watches & Warnings

There are currently no watches in effect.